createdAt,value
2022-10-06T00:03:52.840Z,2.95
2022-10-06T00:08:54.440Z,4.22
2022-10-06T00:13:56.159Z,2.58
2022-10-06T00:18:58.657Z,4.20
2022-10-06T00:24:00.321Z,2.15
2022-10-06T00:29:02.029Z,3.00
2022-10-06T00:34:03.639Z,6.80
2022-10-06T00:39:05.364Z,5.68
2022-10-06T00:44:07.000Z,4.82
2022-10-06T00:49:14.265Z,17.33
2022-10-06T00:54:17.295Z,4.28
2022-10-06T00:59:19.334Z,5.68
2022-10-06T01:04:22.082Z,3.35
2022-10-06T01:09:24.173Z,3.22
2022-10-06T01:14:26.587Z,5.18
2022-10-06T01:20:00.020Z,3.85
2022-10-06T01:25:03.350Z,3.85
2022-10-06T01:30:08.342Z,8.65
2022-10-06T01:35:10.636Z,8.02
2022-10-06T01:40:12.385Z,3.03
2022-10-06T01:45:14.070Z,6.57
2022-10-06T01:50:15.772Z,4.93
2022-10-06T01:55:17.592Z,4.75
2022-10-06T02:00:19.367Z,3.85
2022-10-06T02:05:21.157Z,6.45
2022-10-06T02:10:30.605Z,8.82
2022-10-06T02:15:33.332Z,5.63
2022-10-06T02:20:35.068Z,7.05
2022-10-06T02:25:36.767Z,8.35
2022-10-06T02:30:38.521Z,14.65
2022-10-06T02:35:42.810Z,7.15
2022-10-06T02:40:44.452Z,5.47
2022-10-06T02:46:01.297Z,15.80
2022-10-06T02:51:08.834Z,7.85
2022-10-06T02:56:16.216Z,10.52
2022-10-06T03:01:21.189Z,7.38
2022-10-06T03:06:28.880Z,7.32
2022-10-06T03:11:33.000Z,8.75
2022-10-06T03:16:41.318Z,6.05
2022-10-06T03:21:44.028Z,13.13
2022-10-06T03:26:47.613Z,7.63
2022-10-06T03:31:49.481Z,10.27
2022-10-06T03:36:51.196Z,7.60
2022-10-06T03:41:52.901Z,12.75
2022-10-06T03:46:54.613Z,10.25
2022-10-06T03:51:56.460Z,9.60
2022-10-06T03:56:58.209Z,10.18
2022-10-06T04:02:00.211Z,11.43
2022-10-06T04:07:01.924Z,12.02
2022-10-06T04:12:03.631Z,16.25
2022-10-06T04:17:05.271Z,20.33
2022-10-06T04:22:07.030Z,10.60
2022-10-06T04:27:27.545Z,10.90
2022-10-06T04:32:29.594Z,16.65
2022-10-06T04:37:31.236Z,11.90
2022-10-06T04:42:35.341Z,14.55
2022-10-06T04:47:37.257Z,18.38
2022-10-06T04:52:38.900Z,13.82
2022-10-06T04:57:42.073Z,18.10
2022-10-06T05:02:43.780Z,10.90
2022-10-06T05:07:45.829Z,12.10
2022-10-06T05:12:47.587Z,24.33
2022-10-06T05:17:49.242Z,12.40
2022-10-06T05:22:50.866Z,15.27
2022-10-06T05:27:52.624Z,9.05
2022-10-06T05:32:54.318Z,16.38
2022-10-06T05:37:56.002Z,10.45
2022-10-06T05:42:57.691Z,10.68
2022-10-06T05:47:59.334Z,15.35
2022-10-06T05:53:00.927Z,11.52
2022-10-06T05:58:02.581Z,13.40
2022-10-06T06:03:08.237Z,12.68
2022-10-06T06:08:10.821Z,18.92
2022-10-06T06:13:12.547Z,15.77
2022-10-06T06:18:14.240Z,15.32
2022-10-06T06:23:15.875Z,20.08
2022-10-06T06:28:17.830Z,16.85
2022-10-06T06:33:19.523Z,12.52
2022-10-06T06:38:21.232Z,13.80
2022-10-06T06:43:22.928Z,13.75
2022-10-06T06:48:24.552Z,10.57
2022-10-06T06:53:26.158Z,13.52
2022-10-06T06:58:28.348Z,18.50
2022-10-06T07:03:56.157Z,15.90
2022-10-06T07:08:53.330Z,17.85
2022-10-06T07:14:04.076Z,15.63
2022-10-06T07:19:25.157Z,16.88
2022-10-06T07:24:45.678Z,18.92
2022-10-06T07:29:47.428Z,19.40
2022-10-06T07:34:50.093Z,12.50
2022-10-06T07:39:52.065Z,12.52
2022-10-06T07:45:12.465Z,17.38
2022-10-06T07:50:14.201Z,15.13
2022-10-06T07:55:18.166Z,14.20
2022-10-06T08:00:22.722Z,16.17
2022-10-06T08:05:24.535Z,16.40
2022-10-06T08:10:26.301Z,20.27
2022-10-06T08:15:28.051Z,14.77
2022-10-06T08:20:30.360Z,15.68
2022-10-06T08:25:32.112Z,14.07
2022-10-06T08:30:34.599Z,12.98
2022-10-06T08:35:36.236Z,12.82
2022-10-06T08:40:37.990Z,12.93
2022-10-06T08:45:44.645Z,11.55
2022-10-06T08:51:00.747Z,10.23
2022-10-06T08:56:17.909Z,12.95
2022-10-06T09:01:25.360Z,12.05
2022-10-06T09:06:48.773Z,12.13
2022-10-06T09:12:27.810Z,7.82
2022-10-06T09:17:41.062Z,15.77
2022-10-06T09:22:45.637Z,13.43
2022-10-06T09:27:53.064Z,13.63
2022-10-06T09:33:03.769Z,12.10
2022-10-06T09:38:09.058Z,8.48
2022-10-06T09:43:21.960Z,13.18
2022-10-06T09:48:25.914Z,7.38
2022-10-06T09:53:27.538Z,10.88
2022-10-06T09:58:37.890Z,11.55
2022-10-06T10:04:15.930Z,9.75
2022-10-06T10:09:21.640Z,10.90
2022-10-06T10:14:24.583Z,11.98
2022-10-06T10:19:38.520Z,9.27
2022-10-06T10:24:55.034Z,10.97
2022-10-06T10:30:10.059Z,8.52
2022-10-06T10:35:38.736Z,7.38
2022-10-06T10:41:06.728Z,9.38
2022-10-06T10:46:17.672Z,5.55
2022-10-06T10:51:31.179Z,7.00
2022-10-06T10:56:33.925Z,4.80
2022-10-06T11:01:45.605Z,5.45
2022-10-06T11:06:59.397Z,4.53
2022-10-06T11:12:33.899Z,6.73
2022-10-06T11:17:44.907Z,5.65
2022-10-06T11:23:08.772Z,3.67
2022-10-06T11:28:33.126Z,5.18
2022-10-06T11:33:59.956Z,6.10
2022-10-06T11:39:13.659Z,3.65
2022-10-06T11:44:37.117Z,3.50
2022-10-06T11:49:53.153Z,3.67
2022-10-06T11:54:56.596Z,5.20
2022-10-06T12:00:04.653Z,4.10
2022-10-06T12:05:54.032Z,2.45
2022-10-06T12:10:47.160Z,7.63
2022-10-06T12:21:38.048Z,7.15
2022-10-06T12:26:50.211Z,7.25
2022-10-06T12:31:58.180Z,5.03
2022-10-06T12:37:22.071Z,7.72
2022-10-06T12:42:31.312Z,4.93
2022-10-06T12:47:40.497Z,5.80
2022-10-06T12:53:01.443Z,2.83
2022-10-06T12:58:03.145Z,3.38
2022-10-06T13:03:08.712Z,2.25
2022-10-06T13:08:24.712Z,3.08
2022-10-06T13:13:26.454Z,4.03
2022-10-06T13:18:28.460Z,5.72
2022-10-06T13:23:35.509Z,4.80
2022-10-06T13:28:43.402Z,3.08
2022-10-06T13:33:47.278Z,2.53
2022-10-06T13:38:50.220Z,3.63
2022-10-06T13:43:57.358Z,5.05
2022-10-06T13:49:03.285Z,4.28
2022-10-06T13:54:37.829Z,5.00
2022-10-06T13:59:39.835Z,5.15
2022-10-06T14:04:41.638Z,5.20
2022-10-06T14:09:43.823Z,3.13
2022-10-06T14:14:51.115Z,3.50
2022-10-06T14:19:52.835Z,7.53
2022-10-06T14:24:55.518Z,6.68
2022-10-06T14:29:57.560Z,6.03
2022-10-06T14:34:59.521Z,4.75
2022-10-06T14:40:01.874Z,3.13
2022-10-06T14:45:04.079Z,7.88
2022-10-06T14:50:07.099Z,4.78
2022-10-06T14:55:09.275Z,7.80
2022-10-06T15:00:11.588Z,4.35
2022-10-06T15:05:13.844Z,3.13
2022-10-06T15:10:15.563Z,5.93
2022-10-06T15:15:19.649Z,4.97
2022-10-06T15:20:22.365Z,3.80
2022-10-06T15:25:42.667Z,3.15
2022-10-06T15:30:44.352Z,4.72
2022-10-06T15:36:03.440Z,4.65
2022-10-06T15:41:05.069Z,6.85
2022-10-06T15:46:06.850Z,5.95
2022-10-06T15:51:08.925Z,4.53
2022-10-06T15:56:10.937Z,3.95
2022-10-06T16:01:28.327Z,6.65
2022-10-06T16:06:50.275Z,6.25
2022-10-06T16:11:53.072Z,6.97
2022-10-06T16:17:01.122Z,7.43
2022-10-06T16:22:02.863Z,4.40
2022-10-06T16:27:04.857Z,7.57
2022-10-06T16:32:06.623Z,21.77
2022-10-06T16:37:08.381Z,14.52
2022-10-06T16:42:10.079Z,9.32
2022-10-06T16:47:12.131Z,7.03
2022-10-06T16:52:13.885Z,9.45
2022-10-06T16:57:15.765Z,5.18
2022-10-06T17:02:17.535Z,11.70
2022-10-06T17:07:19.332Z,5.32
2022-10-06T17:12:20.996Z,7.55
2022-10-06T17:17:22.603Z,14.73
2022-10-06T17:22:25.026Z,9.07
2022-10-06T17:27:28.621Z,13.18
2022-10-06T17:32:30.323Z,5.95
2022-10-06T17:37:31.981Z,5.68
2022-10-06T17:42:33.972Z,5.75
2022-10-06T17:47:36.649Z,9.63
2022-10-06T17:52:39.034Z,8.20
2022-10-06T17:57:41.846Z,5.45
2022-10-06T18:02:48.548Z,7.47
2022-10-06T18:07:50.196Z,9.95
2022-10-06T18:12:52.821Z,11.75
2022-10-06T18:17:54.519Z,7.70
2022-10-06T18:22:57.242Z,7.78
2022-10-06T18:27:58.968Z,8.32
2022-10-06T18:38:22.628Z,7.95
2022-10-06T18:43:24.720Z,10.48
2022-10-06T18:48:45.121Z,11.30
2022-10-06T18:53:46.708Z,13.23
2022-10-06T18:58:48.419Z,10.88
2022-10-06T19:03:50.471Z,8.75
2022-10-06T19:09:01.611Z,12.32
2022-10-06T19:14:03.283Z,9.50
2022-10-06T19:19:10.618Z,16.45
2022-10-06T19:24:15.252Z,12.65
2022-10-06T19:29:22.860Z,12.88
2022-10-06T19:34:25.489Z,14.05
2022-10-06T19:39:30.535Z,11.88
2022-10-06T19:44:33.572Z,11.98
2022-10-06T19:49:40.056Z,10.10
2022-10-06T19:54:41.996Z,11.73
2022-10-06T19:59:43.745Z,8.02
2022-10-06T20:04:45.530Z,11.65
2022-10-06T20:09:47.242Z,9.80
2022-10-06T20:14:49.879Z,8.32
2022-10-06T20:19:56.645Z,11.07
2022-10-06T20:25:00.643Z,9.90
2022-10-06T20:30:02.535Z,9.60
2022-10-06T20:35:04.750Z,13.07
2022-10-06T20:40:25.699Z,14.57
2022-10-06T20:45:27.344Z,9.48
2022-10-06T20:50:30.852Z,19.27
2022-10-06T20:55:32.520Z,9.20
2022-10-06T21:00:34.723Z,14.20
2022-10-06T21:05:36.366Z,7.85
2022-10-06T21:10:38.023Z,8.85
2022-10-06T21:15:45.173Z,10.95
2022-10-06T21:20:56.196Z,8.20
2022-10-06T21:26:01.754Z,13.38
2022-10-06T21:31:05.850Z,11.98
2022-10-06T21:36:16.871Z,5.82
2022-10-06T21:41:30.405Z,10.48
2022-10-06T21:46:38.227Z,12.98
2022-10-06T21:51:41.022Z,6.72
2022-10-06T21:56:43.062Z,10.68
2022-10-06T22:01:46.161Z,8.30
2022-10-06T22:06:50.911Z,9.52
2022-10-06T22:11:52.574Z,7.35
2022-10-06T22:16:54.354Z,10.85
2022-10-06T22:21:56.258Z,11.93
2022-10-06T22:26:58.829Z,7.88
2022-10-06T22:32:00.588Z,10.60
2022-10-06T22:37:02.289Z,9.77
2022-10-06T22:42:04.061Z,7.60
2022-10-06T22:47:05.748Z,11.45
2022-10-06T22:52:07.391Z,9.55
2022-10-06T22:57:09.108Z,8.70
2022-10-06T23:02:10.748Z,7.30
2022-10-06T23:07:12.435Z,8.93
2022-10-06T23:12:14.138Z,12.55
2022-10-06T23:17:15.787Z,8.57
2022-10-06T23:22:17.492Z,10.20
2022-10-06T23:27:19.142Z,9.93
2022-10-06T23:32:21.003Z,12.02
2022-10-06T23:37:22.749Z,9.38
2022-10-06T23:42:24.705Z,9.90
2022-10-06T23:47:26.460Z,10.18
2022-10-06T23:52:28.223Z,9.13
2022-10-06T23:57:29.894Z,11.52
